Time;durP1;ratioP1;P1;durP2;ratioP2;P2;SDS_P1;SDS_P2;PMS_P1;PMS_P2;Temp;Humidity;BMP_temperature;BMP_pressure;BME280_temperature;BME280_humidity;BME280_pressure;Samples;Min_cycle;Max_cycle;Signal;HPM_P1;HPM_P2
2021/07/26 00:02:09;;;;;;;;;;;;;;;-144.99;91.93;52285.03;5026293;28;19936;-60
2021/07/26 00:04:38;;;;;;;;;;;;;;;-144.99;92.15;52289.13;5025587;28;19925;-60
2021/07/26 00:07:05;;;;;;;;;;;;;;;-144.99;92.45;52252.44;5027546;28;20012;-60
2021/07/26 00:09:33;;;;;;;;;;;;;;;-144.99;92.44;52260.56;5029936;28;19929;-63
2021/07/26 00:11:59;;;;;;;;;;;;;;;-144.99;92.80;52223.88;5030100;28;19932;-60
2021/07/26 00:14:26;;;;;;;;;;;;;;;-144.99;93.10;52260.56;5027395;28;19928;-60
2021/07/26 00:16:52;;;;;;;;;;;;;;;-144.99;93.22;52240.19;5029796;28;20091;-61
2021/07/26 00:19:18;;;;;;;;;;;;;;;-144.99;93.32;52244.28;5029354;28;19925;-61
2021/07/26 00:21:46;;;;;;;;;;;;;;;-144.99;93.83;52236.13;5030126;28;19929;-61
2021/07/26 00:24:12;;;;;;;;;;;;;;;-144.99;93.98;52236.13;5029299;28;19925;-61
2021/07/26 00:26:39;;;;;;;;;;;;;;;-144.99;93.95;52248.34;5029701;28;19967;-61
2021/07/26 00:29:05;;;;;;;;;;;;;;;-144.99;94.22;52289.13;5026723;28;19932;-61
2021/07/26 00:31:31;;;;;;;;;;;;;;;-144.99;94.38;52270.78;5030626;28;19933;-62
2021/07/26 00:34:18;;;;;;;;;;;;;;;-144.99;94.52;52240.19;5030393;28;19925;-62
2021/07/26 00:36:47;;;;;;;;;;;;;;;-144.99;94.64;52252.44;5022435;28;19995;-61
2021/07/26 00:39:14;;;;;;;;;;;;;;;-144.99;94.60;52262.63;5029114;28;20061;-61
2021/07/26 00:41:41;;;;;;;;;;;;;;;-144.99;94.32;52276.88;5029808;28;19933;-61
2021/07/26 00:44:08;;;;;;;;;;;;;;;-144.99;94.30;52248.34;5029824;28;19929;-62
2021/07/26 00:46:35;;;;;;;;;;;;;;;-144.99;94.23;52211.66;5029759;28;19925;-61
2021/07/26 00:49:03;;;;;;;;;;;;;;;-144.99;94.16;52280.97;5028687;28;19925;-61
2021/07/26 00:51:30;;;;;;;;;;;;;;;-144.99;94.17;52252.44;5026247;28;19932;-61
2021/07/26 00:53:58;;;;;;;;;;;;;;;-144.99;94.15;52256.50;5028917;28;20028;-61
2021/07/26 00:56:25;;;;;;;;;;;;;;;-144.99;94.49;52285.03;5028700;28;19929;-62
2021/07/26 00:58:51;;;;;;;;;;;;;;;-144.99;94.53;52260.56;5028690;28;19929;-62
2021/07/26 01:01:18;;;;;;;;;;;;;;;-144.99;94.41;52252.44;5025037;28;19952;-61
2021/07/26 01:03:44;;;;;;;;;;;;;;;-144.99;94.64;52248.34;5017316;28;19972;-61
2021/07/26 01:06:12;;;;;;;;;;;;;;;-144.99;94.53;52256.50;5025912;28;19940;-61
2021/07/26 01:08:38;;;;;;;;;;;;;;;-144.99;95.00;52256.50;5029583;28;19962;-61
2021/07/26 01:11:06;;;;;;;;;;;;;;;-144.99;95.11;52213.69;5033334;28;20290;-62
2021/07/26 01:13:32;;;;;;;;;;;;;;;-144.99;94.97;52264.66;5032108;28;19940;-62
2021/07/26 01:15:59;;;;;;;;;;;;;;;-144.99;95.22;52234.09;5032425;28;19925;-62
2021/07/26 01:18:26;;;;;;;;;;;;;;;-144.99;95.25;52266.69;5032620;28;19925;-61
2021/07/26 01:20:55;;;;;;;;;;;;;;;-144.99;95.72;52248.34;5033099;28;19933;-62
2021/07/26 01:23:22;;;;;;;;;;;;;;;-144.99;96.14;52250.38;5032955;28;20376;-62
2021/07/26 01:25:48;;;;;;;;;;;;;;;-144.99;96.10;52311.53;5033220;28;19926;-62
2021/07/26 01:28:15;;;;;;;;;;;;;;;-144.99;96.56;52256.50;5028944;28;19926;-62
2021/07/26 01:30:43;;;;;;;;;;;;;;;-144.99;96.86;52234.09;5032587;28;20023;-61
2021/07/26 01:33:09;;;;;;;;;;;;;;;-144.99;96.89;52285.03;5032920;28;19983;-61
2021/07/26 01:35:36;;;;;;;;;;;;;;;-144.99;97.43;52254.47;5032200;28;20378;-61
2021/07/26 01:38:03;;;;;;;;;;;;;;;-144.99;96.92;52285.03;5029889;28;19932;-64
2021/07/26 01:40:33;;;;;;;;;;;;;;;-144.99;97.27;52254.47;5032420;28;19925;-64
2021/07/26 01:43:02;;;;;;;;;;;;;;;-144.99;97.48;52276.88;5032611;28;20056;-63
2021/07/26 01:45:29;;;;;;;;;;;;;;;-144.99;97.36;52232.03;5032054;28;19936;-63
2021/07/26 01:47:58;;;;;;;;;;;;;;;-144.99;97.67;52252.44;5032520;28;19933;-62
2021/07/26 01:50:25;;;;;;;;;;;;;;;-144.99;97.78;52268.72;5031937;28;19932;-63
2021/07/26 01:52:52;;;;;;;;;;;;;;;-144.99;97.84;52297.25;5027028;28;19925;-63
2021/07/26 01:55:19;;;;;;;;;;;;;;;-144.99;98.14;52248.34;5023879;28;20282;-62
2021/07/26 01:57:46;;;;;;;;;;;;;;;-144.99;98.22;52260.56;5046606;22;20334;-69
2021/07/26 02:00:13;;;;;;;;;;;;;;;-144.99;98.15;52254.47;5030525;28;19925;-69
2021/07/26 02:02:39;;;;;;;;;;;;;;;-144.99;98.39;52260.56;5043959;28;20335;-70
2021/07/26 02:05:06;;;;;;;;;;;;;;;-144.99;98.19;52272.81;5036931;28;19925;-70
2021/07/26 02:07:32;;;;;;;;;;;;;;;-144.99;98.25;52268.72;5037413;28;19933;-70
2021/07/26 02:09:59;;;;;;;;;;;;;;;-144.99;98.44;52280.97;5031511;28;19926;-66
2021/07/26 02:12:26;;;;;;;;;;;;;;;-144.99;98.19;52248.34;5034219;28;19925;-66
2021/07/26 02:14:53;;;;;;;;;;;;;;;-144.99;98.06;52297.25;5032235;28;19943;-68
2021/07/26 02:17:19;;;;;;;;;;;;;;;-144.99;98.14;52248.34;5027275;28;19930;-69
2021/07/26 02:19:45;;;;;;;;;;;;;;;-144.99;98.48;52232.03;5032985;28;19943;-66
2021/07/26 02:22:12;;;;;;;;;;;;;;;-144.99;98.85;52256.50;5030861;28;19933;-67
2021/07/26 02:24:38;;;;;;;;;;;;;;;-144.99;99.15;52264.66;5047354;28;19924;-68
2021/07/26 02:27:05;;;;;;;;;;;;;;;-144.99;98.96;52256.50;5039769;28;19932;-67
2021/07/26 02:29:32;;;;;;;;;;;;;;;-144.99;98.96;52291.16;5021374;28;19935;-67
2021/07/26 02:31:59;;;;;;;;;;;;;;;-144.99;98.66;52268.72;5031219;28;19932;-67
2021/07/26 02:34:25;;;;;;;;;;;;;;;-144.99;98.92;52248.34;5031778;28;19932;-67
2021/07/26 02:36:51;;;;;;;;;;;;;;;-144.99;99.31;52285.03;5025376;28;19933;-66
2021/07/26 02:39:18;;;;;;;;;;;;;;;-144.99;99.53;52244.28;5030716;28;19925;-66
2021/07/26 02:41:44;;;;;;;;;;;;;;;-144.99;99.69;52248.34;5038292;28;19926;-66
2021/07/26 02:44:10;;;;;;;;;;;;;;;-144.99;99.57;52248.34;5031448;28;19925;-66
2021/07/26 02:46:38;;;;;;;;;;;;;;;-144.99;99.31;52276.88;5027842;28;19925;-66
2021/07/26 02:49:04;;;;;;;;;;;;;;;-144.99;99.13;52305.41;5033085;28;19925;-66
2021/07/26 02:51:31;;;;;;;;;;;;;;;-144.99;99.49;52264.66;5028841;28;19952;-66
2021/07/26 02:53:57;;;;;;;;;;;;;;;-144.99;100.00;52264.66;5031747;28;20291;-66
2021/07/26 02:56:23;;;;;;;;;;;;;;;-144.99;100.00;52230.00;5030503;28;19925;-66
2021/07/26 02:58:50;;;;;;;;;;;;;;;-144.99;100.00;52291.16;5030836;28;20033;-66
2021/07/26 03:01:18;;;;;;;;;;;;;;;-144.99;100.00;52264.66;5031295;28;19951;-66
2021/07/26 03:03:46;;;;;;;;;;;;;;;-144.99;100.00;52297.25;5026743;28;20357;-66
2021/07/26 03:06:15;;;;;;;;;;;;;;;-144.99;100.00;52256.50;5025765;28;19925;-66
2021/07/26 03:08:42;;;;;;;;;;;;;;;-144.99;99.87;52244.28;5037452;28;19955;-67
2021/07/26 03:11:10;;;;;;;;;;;;;;;-144.99;99.81;52272.81;5027417;28;19925;-70
2021/07/26 03:13:37;;;;;;;;;;;;;;;-144.99;99.92;52240.19;5038369;28;19929;-69
2021/07/26 03:16:04;;;;;;;;;;;;;;;-144.99;100.00;52236.13;5029922;28;20291;-70
2021/07/26 03:18:30;;;;;;;;;;;;;;;-144.99;100.00;52252.44;5027083;28;19960;-69
2021/07/26 03:20:58;;;;;;;;;;;;;;;-144.99;100.00;52297.25;5033146;28;19932;-69
2021/07/26 03:23:24;;;;;;;;;;;;;;;-144.99;100.00;52285.03;5030084;28;20155;-67
2021/07/26 03:25:51;;;;;;;;;;;;;;;-144.99;99.89;52256.50;5030430;28;19932;-66
2021/07/26 03:28:17;;;;;;;;;;;;;;;-144.99;100.00;52278.91;5030641;28;19925;-66
2021/07/26 03:30:43;;;;;;;;;;;;;;;-144.99;99.99;52223.88;5031470;28;19932;-66
2021/07/26 03:33:10;;;;;;;;;;;;;;;-144.99;99.93;52268.72;5030847;28;19936;-66
2021/07/26 03:35:36;;;;;;;;;;;;;;;-144.99;99.46;52262.63;5024417;28;20354;-66
2021/07/26 03:38:05;;;;;;;;;;;;;;;-144.99;99.54;52285.03;5030430;28;20001;-67
2021/07/26 03:40:32;;;;;;;;;;;;;;;-144.99;99.88;52256.50;5029081;28;19926;-66
2021/07/26 03:42:58;;;;;;;;;;;;;;;-144.99;99.57;52252.44;5030598;28;19925;-67
2021/07/26 03:45:25;;;;;;;;;;;;;;;-144.99;99.78;52260.56;5033124;28;19926;-72
2021/07/26 03:47:51;;;;;;;;;;;;;;;-144.99;100.00;52289.13;5029135;28;19929;-72
2021/07/26 03:50:18;;;;;;;;;;;;;;;-144.99;100.00;52293.19;5028772;28;19925;-71
2021/07/26 03:52:45;;;;;;;;;;;;;;;-144.99;100.00;52246.31;5031987;28;19975;-71
2021/07/26 03:55:15;;;;;;;;;;;;;;;-144.99;100.00;52278.91;5029782;28;20398;-70
2021/07/26 03:57:41;;;;;;;;;;;;;;;-144.99;99.71;52268.72;5028169;28;19933;-68
2021/07/26 04:00:08;;;;;;;;;;;;;;;-144.99;99.24;52246.31;5030029;28;20018;-68
2021/07/26 04:02:36;;;;;;;;;;;;;;;-144.99;99.14;52248.34;5028325;28;19980;-70
2021/07/26 04:05:03;;;;;;;;;;;;;;;-144.99;98.69;52246.31;5027572;28;19925;-70
2021/07/26 04:07:32;;;;;;;;;;;;;;;-144.99;99.05;52256.50;5022445;28;20274;-70
2021/07/26 04:10:03;;;;;;;;;;;;;;;-144.99;98.94;52287.06;5024487;28;19995;-70
2021/07/26 04:12:33;;;;;;;;;;;;;;;-144.99;98.58;52256.50;5037338;28;19925;-70
2021/07/26 04:15:06;;;;;;;;;;;;;;;-144.99;98.59;52291.16;5031620;28;19994;-70
2021/07/26 04:17:32;;;;;;;;;;;;;;;-144.99;98.71;52248.34;5023625;28;20199;-72
2021/07/26 04:19:59;;;;;;;;;;;;;;;-144.99;98.56;52260.56;5032825;28;19925;-73
2021/07/26 04:22:25;;;;;;;;;;;;;;;-144.99;98.48;52232.03;5024678;28;19933;-73
2021/07/26 04:24:51;;;;;;;;;;;;;;;-144.99;98.59;52297.25;5026421;28;20171;-73
2021/07/26 04:27:18;;;;;;;;;;;;;;;-144.99;98.91;52260.56;5030496;28;19925;-74
2021/07/26 04:29:45;;;;;;;;;;;;;;;-144.99;99.36;52262.63;5019483;28;19930;-74
2021/07/26 04:32:12;;;;;;;;;;;;;;;-144.99;99.08;52260.56;5015554;28;19925;-74
2021/07/26 04:34:38;;;;;;;;;;;;;;;-144.99;98.94;52268.72;5028264;28;19925;-73
2021/07/26 04:37:05;;;;;;;;;;;;;;;-144.99;98.50;52256.50;5025436;28;19932;-73
2021/07/26 04:39:31;;;;;;;;;;;;;;;-144.99;98.31;52289.13;5023827;28;19942;-73
2021/07/26 04:41:57;;;;;;;;;;;;;;;-144.99;98.45;52203.50;5036259;28;19925;-73
2021/07/26 04:44:24;;;;;;;;;;;;;;;-144.99;98.46;52276.88;5019231;28;19936;-72
2021/07/26 04:46:51;;;;;;;;;;;;;;;-144.99;98.52;52264.66;5031989;28;19932;-70
2021/07/26 04:49:19;;;;;;;;;;;;;;;-144.99;98.35;52244.28;5030765;28;19925;-69
2021/07/26 04:51:46;;;;;;;;;;;;;;;-144.99;98.17;52252.44;5027062;28;20376;-70
2021/07/26 04:54:12;;;;;;;;;;;;;;;-144.99;98.09;52232.03;5032914;28;20399;-70
2021/07/26 04:56:38;;;;;;;;;;;;;;;-144.99;98.00;52285.03;5028730;28;19937;-69
2021/07/26 04:59:05;;;;;;;;;;;;;;;-144.99;97.97;52270.78;5022899;28;19930;-69
2021/07/26 05:01:31;;;;;;;;;;;;;;;-144.99;97.72;52256.50;5023883;28;20059;-69
2021/07/26 05:03:59;;;;;;;;;;;;;;;-144.99;97.39;52260.56;3986194;28;10000880;-70
2021/07/26 05:06:25;;;;;;;;;;;;;;;-144.99;97.09;52256.50;5022427;28;19926;-69
2021/07/26 05:08:52;;;;;;;;;;;;;;;-144.99;96.84;52217.78;5020603;28;19929;-70
2021/07/26 05:11:22;;;;;;;;;;;;;;;-144.99;96.38;52248.34;5026162;28;19925;-70
2021/07/26 05:13:48;;;;;;;;;;;;;;;-144.99;96.02;52236.13;5019275;28;19925;-70
2021/07/26 05:16:14;;;;;;;;;;;;;;;-144.99;96.02;52264.66;5025508;28;20048;-70
2021/07/26 05:18:41;;;;;;;;;;;;;;;-144.99;95.87;52240.19;5017389;28;19932;-69
2021/07/26 05:21:08;;;;;;;;;;;;;;;-144.99;95.79;52236.13;5021772;28;20016;-69
2021/07/26 05:23:35;;;;;;;;;;;;;;;-144.99;95.79;52211.66;5023885;28;19929;-69
2021/07/26 05:26:01;;;;;;;;;;;;;;;-144.99;95.77;52248.34;5021882;28;19925;-69
2021/07/26 05:28:27;;;;;;;;;;;;;;;-144.99;95.63;52215.75;5021936;28;19929;-69
2021/07/26 05:30:54;;;;;;;;;;;;;;;-144.99;96.19;52213.69;5017134;28;19934;-70
2021/07/26 05:33:20;;;;;;;;;;;;;;;-144.99;96.42;52248.34;5020195;28;20166;-70
2021/07/26 05:35:46;;;;;;;;;;;;;;;-144.99;96.52;52250.38;5025598;28;20394;-70
2021/07/26 05:38:14;;;;;;;;;;;;;;;-144.99;96.68;52246.31;5025758;28;19956;-70
2021/07/26 05:40:41;;;;;;;;;;;;;;;-144.99;96.91;52256.50;5022927;28;19933;-70
2021/07/26 05:43:10;;;;;;;;;;;;;;;-144.99;97.01;52248.34;5031252;28;20291;-69
2021/07/26 05:45:37;;;;;;;;;;;;;;;-144.99;97.16;52268.72;5030323;28;19929;-70
2021/07/26 05:48:04;;;;;;;;;;;;;;;-144.99;97.12;52254.47;5033416;28;19929;-70
2021/07/26 05:50:31;;;;;;;;;;;;;;;-144.99;97.25;52230.00;5031092;28;20275;-69
2021/07/26 05:52:57;;;;;;;;;;;;;;;-144.99;97.62;52203.50;5018117;28;19937;-70
2021/07/26 05:55:25;;;;;;;;;;;;;;;-144.99;97.99;52268.72;5021486;28;19940;-70
2021/07/26 05:57:51;;;;;;;;;;;;;;;-144.99;98.52;52280.97;5032150;28;19940;-69
2021/07/26 06:00:24;;;;;;;;;;;;;;;-144.99;99.20;52207.59;5026658;28;20457;-70
2021/07/26 06:02:50;;;;;;;;;;;;;;;-144.99;99.29;52221.84;5027980;28;19948;-70
2021/07/26 06:05:17;;;;;;;;;;;;;;;-144.99;99.35;52223.88;5026240;28;19940;-71
2021/07/26 06:07:43;;;;;;;;;;;;;;;-144.99;98.99;52227.97;5023609;28;19929;-68
2021/07/26 06:10:10;;;;;;;;;;;;;;;-144.99;99.06;52232.03;5028320;28;20176;-68
2021/07/26 06:12:38;;;;;;;;;;;;;;;-144.99;98.94;52207.59;5024107;28;20206;-69
2021/07/26 06:15:05;;;;;;;;;;;;;;;-144.99;98.65;52223.88;5030621;28;20498;-69
2021/07/26 06:17:31;;;;;;;;;;;;;;;-144.99;98.26;52203.50;5022872;28;19935;-70
2021/07/26 06:19:57;;;;;;;;;;;;;;;-144.99;97.39;52240.19;5028747;28;19935;-71
2021/07/26 06:22:24;;;;;;;;;;;;;;;-144.99;96.23;52256.50;5023039;28;19933;-70
2021/07/26 06:24:50;;;;;;;;;;;;;;;-144.99;93.85;52256.50;5033146;28;19929;-69
2021/07/26 06:27:16;;;;;;;;;;;;;;;-144.99;93.03;52236.13;5032093;28;19936;-70
2021/07/26 06:29:44;;;;;;;;;;;;;;;-144.99;93.18;52203.50;5028382;28;19940;-69
2021/07/26 06:32:11;;;;;;;;;;;;;;;-144.99;92.49;52252.44;5024485;28;19933;-70
2021/07/26 06:34:37;;;;;;;;;;;;;;;-144.99;91.26;52238.16;5027793;28;19960;-70
2021/07/26 06:37:03;;;;;;;;;;;;;;;-144.99;90.32;52215.75;5031944;28;19936;-70
2021/07/26 06:39:30;;;;;;;;;;;;;;;-144.99;89.45;52170.91;5022472;28;19929;-70
2021/07/26 06:41:56;;;;;;;;;;;;;;;-144.99;88.56;52227.97;5029731;28;19929;-70
2021/07/26 06:44:22;;;;;;;;;;;;;;;-144.99;87.50;52240.19;5030754;28;20440;-69
2021/07/26 06:46:50;;;;;;;;;;;;;;;-144.99;87.41;52207.59;5026193;28;20387;-71
2021/07/26 06:49:16;;;;;;;;;;;;;;;-144.99;86.02;52187.19;5026628;28;19928;-70
2021/07/26 06:51:43;;;;;;;;;;;;;;;-144.99;85.72;52191.28;5025678;28;19940;-69
2021/07/26 06:54:11;;;;;;;;;;;;;;;-144.99;85.00;52179.06;5031924;28;19933;-69
2021/07/26 06:56:38;;;;;;;;;;;;;;;-144.99;84.62;52199.44;5025551;28;20027;-69
2021/07/26 06:59:04;;;;;;;;;;;;;;;-144.99;84.10;52191.28;5027058;28;19933;-70
2021/07/26 07:01:30;;;;;;;;;;;;;;;-144.99;81.37;52191.28;5030326;28;19929;-69
2021/07/26 07:03:58;;;;;;;;;;;;;;;-144.99;80.46;52187.19;5029845;28;19935;-70
2021/07/26 07:06:26;;;;;;;;;;;;;;;-144.99;79.24;52170.91;5022828;28;19932;-70
2021/07/26 07:08:53;;;;;;;;;;;;;;;-144.99;76.25;52187.19;5028727;28;20040;-70
2021/07/26 07:11:19;;;;;;;;;;;;;;;-144.99;75.53;52195.34;5027794;28;19947;-69
2021/07/26 07:13:47;;;;;;;;;;;;;;;-144.99;75.28;52166.81;5020833;28;19972;-69
2021/07/26 07:16:16;;;;;;;;;;;;;;;-144.99;74.91;52187.19;5027594;28;19932;-69
2021/07/26 07:18:42;;;;;;;;;;;;;;;-144.99;74.82;52166.81;5021996;28;19929;-70
2021/07/26 07:21:15;;;;;;;;;;;;;;;-144.99;74.81;52189.25;5025432;28;20287;-70
2021/07/26 07:23:41;;;;;;;;;;;;;;;-144.99;74.90;52170.91;5029413;28;19929;-69
2021/07/26 07:26:08;;;;;;;;;;;;;;;-144.99;75.30;52170.91;5035624;28;19932;-70
2021/07/26 07:28:34;;;;;;;;;;;;;;;-144.99;75.29;52191.28;5023670;28;19936;-70
2021/07/26 07:31:00;;;;;;;;;;;;;;;-144.99;75.24;52170.91;5028856;28;19959;-69
2021/07/26 07:33:27;;;;;;;;;;;;;;;-144.99;74.62;52187.19;5033811;28;19929;-75
2021/07/26 07:35:53;;;;;;;;;;;;;;;-144.99;74.39;52195.34;5020073;28;19929;-75
2021/07/26 07:38:21;;;;;;;;;;;;;;;-144.99;75.43;52195.34;5025557;28;19925;-74
2021/07/26 07:40:47;;;;;;;;;;;;;;;-144.99;75.29;52183.13;5017722;28;20346;-74
2021/07/26 07:43:13;;;;;;;;;;;;;;;-144.99;75.29;52203.50;5025355;28;19929;-74
2021/07/26 07:45:40;;;;;;;;;;;;;;;-144.99;74.60;52181.09;5031563;28;19940;-74
2021/07/26 07:48:06;;;;;;;;;;;;;;;-144.99;75.46;52172.94;5026714;28;19925;-74
2021/07/26 07:50:33;;;;;;;;;;;;;;;-144.99;75.78;52193.31;5028565;28;19944;-74
2021/07/26 07:52:59;;;;;;;;;;;;;;;-144.99;75.55;52199.44;5033212;28;19925;-74
2021/07/26 07:55:28;;;;;;;;;;;;;;;-144.99;75.08;52166.81;5032864;28;19933;-75
2021/07/26 07:57:54;;;;;;;;;;;;;;;-144.99;75.14;52170.91;5027792;28;19929;-75
2021/07/26 08:00:22;;;;;;;;;;;;;;;-144.99;75.31;52207.59;5042920;22;20430;-66
2021/07/26 08:02:48;;;;;;;;;;;;;;;-144.99;75.88;52174.97;5026181;28;19929;-66
2021/07/26 08:05:15;;;;;;;;;;;;;;;-144.99;75.48;52199.44;5026481;28;19929;-66
2021/07/26 08:07:42;;;;;;;;;;;;;;;-144.99;75.51;52211.66;5027541;28;20176;-66
2021/07/26 08:10:08;;;;;;;;;;;;;;;-144.99;75.38;52211.66;5026854;28;19933;-66
2021/07/26 08:12:36;;;;;;;;;;;;;;;-144.99;75.74;52215.75;5026983;28;19933;-66
2021/07/26 08:15:02;;;;;;;;;;;;;;;-144.99;75.91;52199.44;5026536;28;19937;-67
2021/07/26 08:17:29;;;;;;;;;;;;;;;-144.99;75.59;52162.75;5026369;28;19929;-67
2021/07/26 08:19:56;;;;;;;;;;;;;;;-144.99;74.95;52179.06;5025306;28;19968;-67
2021/07/26 08:22:22;;;;;;;;;;;;;;;-144.99;75.05;52195.34;5025907;28;19925;-66
2021/07/26 08:24:48;;;;;;;;;;;;;;;-144.99;75.07;52181.09;5027124;28;20192;-66
2021/07/26 08:27:15;;;;;;;;;;;;;;;-144.99;75.27;52150.53;5026701;28;20141;-66
2021/07/26 08:29:43;;;;;;;;;;;;;;;-144.99;75.25;52156.63;5024737;28;19929;-66
2021/07/26 08:32:09;;;;;;;;;;;;;;;-144.99;75.65;52179.06;5021966;28;19925;-67
2021/07/26 08:34:35;;;;;;;;;;;;;;;-144.99;75.28;52162.75;5028613;28;19929;-67
2021/07/26 08:37:02;;;;;;;;;;;;;;;-144.99;74.57;52162.75;5026828;28;20261;-66
2021/07/26 08:39:28;;;;;;;;;;;;;;;-144.99;74.51;52113.84;5026460;28;19933;-66
2021/07/26 08:41:55;;;;;;;;;;;;;;;-144.99;73.95;52166.81;5027500;28;20314;-67
2021/07/26 08:44:21;;;;;;;;;;;;;;;-144.99;74.78;52136.25;5026312;28;19933;-67
2021/07/26 08:46:50;;;;;;;;;;;;;;;-144.99;74.33;52146.44;5025879;28;19933;-66
2021/07/26 08:49:18;;;;;;;;;;;;;;;-144.99;74.49;52158.66;5017024;28;19925;-66
2021/07/26 08:51:45;;;;;;;;;;;;;;;-144.99;74.55;52117.91;5026070;28;19925;-66
2021/07/26 08:54:13;;;;;;;;;;;;;;;-144.99;74.25;52162.75;5024639;28;19925;-67
2021/07/26 08:56:40;;;;;;;;;;;;;;;-144.99;73.27;52191.28;5024962;28;19933;-67
2021/07/26 08:59:07;;;;;;;;;;;;;;;-144.99;73.38;52170.91;5024935;28;20487;-67
2021/07/26 09:01:34;;;;;;;;;;;;;;;-144.99;73.70;52146.44;5025634;28;19925;-67
2021/07/26 09:04:01;;;;;;;;;;;;;;;-144.99;74.36;52150.53;5026418;28;19945;-67
2021/07/26 09:06:28;;;;;;;;;;;;;;;-144.99;74.07;52166.81;5019163;28;19955;-67
2021/07/26 09:08:54;;;;;;;;;;;;;;;-144.99;74.23;52124.03;5026869;28;19929;-67
2021/07/26 09:11:20;;;;;;;;;;;;;;;-144.99;73.86;52130.13;5026177;28;19940;-67
2021/07/26 09:13:47;;;;;;;;;;;;;;;-144.99;74.07;52172.94;5025450;28;19936;-67
2021/07/26 09:16:17;;;;;;;;;;;;;;;-144.99;73.39;52160.72;5025412;28;19929;-66
2021/07/26 09:18:44;;;;;;;;;;;;;;;-144.99;72.37;52181.09;5025600;28;20425;-67
2021/07/26 09:21:11;;;;;;;;;;;;;;;-144.99;72.45;52150.53;5026094;28;20008;-67
2021/07/26 09:23:58;;;;;;;;;;;;;;;-144.99;70.77;52154.59;5025225;28;19935;-67
2021/07/26 09:26:27;;;;;;;;;;;;;;;-144.99;69.53;52166.81;5026450;28;19926;-66
2021/07/26 09:28:54;;;;;;;;;;;;;;;-144.99;68.39;52134.22;5023881;28;19932;-66
2021/07/26 09:31:20;;;;;;;;;;;;;;;-144.99;67.53;52154.59;5029666;28;19925;-68
2021/07/26 09:33:46;;;;;;;;;;;;;;;-144.99;66.48;52138.28;5022711;28;20078;-65
2021/07/26 09:36:18;;;;;;;;;;;;;;;-144.99;66.13;52174.97;5029631;28;19936;-65
2021/07/26 09:38:53;;;;;;;;;;;;;;;-144.99;64.79;52134.22;5029488;28;19925;-66
2021/07/26 09:41:39;;;;;;;;;;;;;;;-144.99;65.00;52162.75;5029672;28;20406;-67
2021/07/26 09:44:06;;;;;;;;;;;;;;;-144.99;65.19;52183.13;5024538;28;19929;-67
2021/07/26 09:46:32;;;;;;;;;;;;;;;-144.99;65.36;52183.13;5030134;28;19936;-67
2021/07/26 09:49:07;;;;;;;;;;;;;;;-144.99;66.24;52181.09;5029214;28;19929;-66
2021/07/26 09:51:35;;;;;;;;;;;;;;;-144.99;66.27;52179.06;5029838;28;19932;-65
2021/07/26 09:54:02;;;;;;;;;;;;;;;-144.99;67.29;52207.59;5027622;28;19952;-67
2021/07/26 09:56:29;;;;;;;;;;;;;;;-144.99;66.86;52187.19;5029701;28;19925;-66
2021/07/26 09:58:56;;;;;;;;;;;;;;;-144.99;67.71;52203.50;5029294;28;19925;-67
2021/07/26 10:01:23;;;;;;;;;;;;;;;-144.99;67.12;52199.44;5029360;28;19925;-66
2021/07/26 10:03:51;;;;;;;;;;;;;;;-144.99;66.61;52166.81;5029087;28;19936;-67
2021/07/26 10:06:18;;;;;;;;;;;;;;;-144.99;66.83;52236.13;5030207;28;19937;-67
2021/07/26 10:08:47;;;;;;;;;;;;;;;-144.99;67.42;52179.06;5029411;28;19925;-67
2021/07/26 10:11:15;;;;;;;;;;;;;;;-144.99;68.50;52232.03;5029741;28;20454;-67
2021/07/26 10:13:42;;;;;;;;;;;;;;;-144.99;69.50;52211.66;5028124;28;19976;-67
2021/07/26 10:16:13;;;;;;;;;;;;;;;-144.99;70.18;52187.19;5027375;28;20315;-67
2021/07/26 10:18:42;;;;;;;;;;;;;;;-144.99;70.53;52183.13;5026583;28;19925;-67
2021/07/26 10:21:08;;;;;;;;;;;;;;;-144.99;70.01;52199.44;5016623;28;20149;-67
2021/07/26 10:23:37;;;;;;;;;;;;;;;-144.99;71.27;52191.28;5031845;28;19941;-67
2021/07/26 10:26:06;;;;;;;;;;;;;;;-144.99;70.58;52187.19;5028094;28;20372;-66
2021/07/26 10:28:34;;;;;;;;;;;;;;;-144.99;70.98;52146.44;5026983;28;19933;-66
2021/07/26 10:31:00;;;;;;;;;;;;;;;-144.99;70.58;52166.81;5025500;28;20350;-67
2021/07/26 10:33:26;;;;;;;;;;;;;;;-144.99;70.64;52140.31;5028857;28;19936;-66
2021/07/26 10:35:53;;;;;;;;;;;;;;;-144.99;70.12;52230.00;5025631;28;19929;-67
2021/07/26 10:38:39;;;;;;;;;;;;;;;-144.99;70.14;52150.53;5029111;28;19929;-66
2021/07/26 10:41:06;;;;;;;;;;;;;;;-144.99;69.96;52152.56;5023760;28;19936;-66
2021/07/26 10:43:48;;;;;;;;;;;;;;;-144.99;69.96;52158.66;5028650;28;19925;-67
2021/07/26 10:46:14;;;;;;;;;;;;;;;-144.99;69.66;52199.44;5019772;28;20028;-67
2021/07/26 10:48:49;;;;;;;;;;;;;;;-144.99;69.39;52158.66;5023720;28;19925;-67
2021/07/26 10:51:36;;;;;;;;;;;;;;;-144.99;68.64;52162.75;5029548;28;19972;-67
2021/07/26 10:54:02;;;;;;;;;;;;;;;-144.99;68.27;52162.75;5029914;28;19969;-67
2021/07/26 10:56:49;;;;;;;;;;;;;;;-144.99;68.13;52166.81;5027919;28;19941;-67
2021/07/26 10:59:18;;;;;;;;;;;;;;;-144.99;67.02;52174.97;5027589;28;19929;-66
2021/07/26 11:02:00;;;;;;;;;;;;;;;-144.99;67.74;52154.59;5027508;28;19931;-67
2021/07/26 11:04:31;;;;;;;;;;;;;;;-144.99;66.26;52158.66;5026571;28;19936;-67
2021/07/26 11:06:58;;;;;;;;;;;;;;;-144.99;65.37;52148.47;5015024;28;19937;-67
2021/07/26 11:09:43;;;;;;;;;;;;;;;-144.99;64.78;52138.28;5026610;28;19952;-66
2021/07/26 11:12:11;;;;;;;;;;;;;;;-144.99;63.85;52146.44;5027533;28;19979;-66
2021/07/26 11:14:38;;;;;;;;;;;;;;;-144.99;62.97;52174.97;5014992;28;19933;-67
2021/07/26 11:17:07;;;;;;;;;;;;;;;-144.99;62.80;52146.44;5021991;28;19925;-67
2021/07/26 11:19:38;;;;;;;;;;;;;;;-144.99;62.49;52152.56;5022852;28;19929;-66
2021/07/26 11:22:05;;;;;;;;;;;;;;;-144.99;61.93;52113.84;5027493;28;19925;-66
2021/07/26 11:24:44;;;;;;;;;;;;;;;-144.99;60.46;52130.13;5027692;28;19926;-67
2021/07/26 11:27:13;;;;;;;;;;;;;;;-144.99;60.52;52134.22;5027259;28;20023;-67
2021/07/26 11:29:39;;;;;;;;;;;;;;;-144.99;60.37;52077.16;5024323;28;19940;-66
2021/07/26 11:32:06;;;;;;;;;;;;;;;-144.99;60.01;52138.28;5028201;28;20338;-66
2021/07/26 11:34:35;;;;;;;;;;;;;;;-144.99;59.18;52130.13;5027750;28;20434;-67
2021/07/26 11:37:02;;;;;;;;;;;;;;;-144.99;59.94;52105.69;5024460;28;19926;-66
2021/07/26 11:39:43;;;;;;;;;;;;;;;-144.99;59.30;52134.22;5018064;28;20298;-67
2021/07/26 11:42:09;;;;;;;;;;;;;;;-144.99;59.90;52126.06;5026273;28;20379;-67
2021/07/26 11:44:37;;;;;;;;;;;;;;;-144.99;58.88;52113.84;5027390;28;19948;-66
2021/07/26 11:47:03;;;;;;;;;;;;;;;-144.99;58.50;51999.69;5027248;28;20306;-67
2021/07/26 11:49:30;;;;;;;;;;;;;;;-144.99;56.09;52040.47;5022718;28;19928;-67
2021/07/26 11:52:05;;;;;;;;;;;;;;;-144.99;55.50;52081.22;5026383;28;20213;-67
2021/07/26 11:54:31;;;;;;;;;;;;;;;-144.99;55.52;52111.78;5026957;28;19929;-67
2021/07/26 11:57:03;;;;;;;;;;;;;;;-144.99;56.09;52087.34;5027677;28;20290;-66
2021/07/26 11:59:31;;;;;;;;;;;;;;;-144.99;55.46;52050.66;5025026;28;19933;-66
2021/07/26 12:02:00;;;;;;;;;;;;;;;-144.99;55.53;52020.09;5026904;28;20027;-67
2021/07/26 12:04:28;;;;;;;;;;;;;;;-144.99;53.78;52052.69;5027217;28;19951;-67
2021/07/26 12:06:58;;;;;;;;;;;;;;;-144.99;53.55;52016.00;5024607;28;19929;-67
2021/07/26 12:09:25;;;;;;;;;;;;;;;-144.99;52.89;52001.75;5026132;28;20303;-67
2021/07/26 12:11:54;;;;;;;;;;;;;;;-144.99;52.84;52016.00;5022595;28;19933;-68
2021/07/26 12:14:27;;;;;;;;;;;;;;;-144.99;51.55;52036.38;5027452;28;19929;-68
2021/07/26 12:17:02;;;;;;;;;;;;;;;-144.99;51.54;52032.31;5027252;28;19948;-68
2021/07/26 12:19:29;;;;;;;;;;;;;;;-144.99;51.45;52016.00;5013140;28;19933;-67
2021/07/26 12:21:59;;;;;;;;;;;;;;;-144.99;51.31;52020.09;5024072;28;20190;-67
2021/07/26 12:24:44;;;;;;;;;;;;;;;-144.99;49.18;51948.75;5027211;28;19929;-67
2021/07/26 12:27:11;;;;;;;;;;;;;;;-144.99;48.33;51993.59;5026991;28;20588;-67
2021/07/26 12:29:52;;;;;;;;;;;;;;;-144.99;48.72;51979.31;5026196;28;19929;-67